Wetterstation Vordersexau
Wetterdaten: August 2017
Datum Temp. A. Feuchte A. Luftdruck Regen Wind Richtung Taupunkt Windchill Windben
01.08.2017 23,9 C 71 % 1012,6 hPa 6,2 l/m 0,0 km/h N-NO 18,2 C 23,9 C 0,0 km/h
02.08.2017 25,2 C 65 % 1015,7 hPa 4,1 l/m 0,8 km/h W 17,8 C 25,2 C 0,4 km/h
03.08.2017 25,6 C 72 % 1012,1 hPa 0,0 l/m 2,5 km/h O-SO 19,9 C 25,6 C 1,4 km/h
04.08.2017 22,8 C 68 % 1013,4 hPa 0,0 l/m 5,2 km/h NO 16,3 C 22,3 C 2,9 km/h
05.08.2017 21,8 C 69 % 1014,0 hPa 0,0 l/m 4,9 km/h N-NO 15,5 C 21,5 C 2,7 km/h
06.08.2017 21,3 C 59 % 1018,8 hPa 0,0 l/m 1,2 km/h N-NO 12,0 C 21,2 C 0,7 km/h
07.08.2017 21,4 C 60 % 1014,1 hPa 0,0 l/m 0,7 km/h N-NO 12,4 C 21,4 C 0,4 km/h
08.08.2017 18,8 C 75 % 1009,7 hPa 1,0 l/m 3,9 km/h W-SW 14,1 C 18,3 C 2,1 km/h
09.08.2017 19,1 C 68 % 1013,7 hPa 6,2 l/m 0,0 km/h SO 12,7 C 19,1 C 0,0 km/h
10.08.2017 13,8 C 76 % 1017,0 hPa 14,5 l/m 0,3 km/h O-NO 9,6 C 13,8 C 0,2 km/h
11.08.2017 13,3 C 79 % 1015,7 hPa 3,1 l/m 0,5 km/h O-SO 9,7 C 13,3 C 0,3 km/h
12.08.2017 16,9 C 71 % 1017,8 hPa 2,1 l/m 3,9 km/h NO 11,4 C 16,2 C 2,2 km/h
13.08.2017 21,0 C 68 % 1017,8 hPa 0,0 l/m 0,3 km/h O-SO 14,3 C 21,0 C 0,2 km/h
14.08.2017 22,6 C 66 % 1015,9 hPa 0,0 l/m 0,9 km/h N 15,1 C 22,6 C 0,5 km/h
15.08.2017 24,0 C 64 % 1015,3 hPa 0,0 l/m 1,6 km/h O-SO 16,2 C 23,9 C 0,9 km/h
16.08.2017 23,4 C 68 % 1017,7 hPa 0,5 l/m 0,1 km/h O-SO 16,8 C 23,4 C 0,0 km/h
17.08.2017 23,9 C 65 % 1015,9 hPa 0,0 l/m 4,5 km/h O-SO 16,3 C 23,7 C 2,5 km/h
18.08.2017 20,9 C 72 % 1013,4 hPa 18,6 l/m 1,5 km/h O-SO 15,3 C 20,8 C 0,8 km/h
19.08.2017 19,8 C 65 % 1017,3 hPa 0,0 l/m 1,1 km/h N-NO 12,5 C 19,7 C 0,6 km/h
20.08.2017 18,1 C 64 % 1021,2 hPa 0,0 l/m 0,0 km/h SO 10,5 C 18,1 C 0,0 km/h
21.08.2017 18,3 C 64 % 1020,7 hPa 0,0 l/m 1,5 km/h O-SO 10,4 C 18,2 C 0,8 km/h
22.08.2017 21,2 C 64 % 1016,8 hPa 0,0 l/m 0,6 km/h SO 13,4 C 21,2 C 0,4 km/h
23.08.2017 22,7 C 65 % 1013,3 hPa 0,0 l/m 0,1 km/h O-SO 14,7 C 22,7 C 0,0 km/h
24.08.2017 22,3 C 68 % 1014,8 hPa 0,0 l/m 1,2 km/h O-SO 15,6 C 22,2 C 0,7 km/h
25.08.2017 23,2 C 67 % 1014,5 hPa 0,0 l/m 0,1 km/h O-SO 16,1 C 23,2 C 0,0 km/h
26.08.2017 25,1 C 59 % 1013,4 hPa 0,0 l/m 3,2 km/h O-SO 15,3 C 25,0 C 1,8 km/h
27.08.2017 24,0 C 66 % 1014,1 hPa 0,0 l/m 0,8 km/h O-SO 16,6 C 24,0 C 0,4 km/h
28.08.2017 23,9 C 67 % 1014,6 hPa 0,0 l/m 0,9 km/h NO 16,7 C 23,9 C 0,5 km/h
29.08.2017 24,6 C 65 % 1012,0 hPa 0,0 l/m 0,1 km/h N 16,8 C 24,6 C 0,0 km/h
30.08.2017 24,5 C 65 % 1009,1 hPa 1,0 l/m 2,4 km/h O-SO 16,7 C 24,5 C 1,4 km/h
31.08.2017 16,9 C 80 % 1014,4 hPa 4,1 l/m 2,1 km/h O-SO 13,4 C 16,5 C 1,2 km/h
Min-Datum 07.08.17 06.08.17 08.08.17 11 Tage 01.08.17 - 11.08.17 07.08.17 01.08.17
Min-Zeit 06:54 17:54 05:54 - 00:55 - 04:54 06:54 00:55
Minimum 8,9 C 28 % 1007,0 hPa - 0,0 km/h - 5,7 C 8,9 C 0,0 km/h
Max-Datum 29.08.17 07.08.17 20.08.17 18.08.17 05.08.17 - 01.08.17 29.08.17 05.08.17
Max-Zeit 17:53 06:54 23:53 18:52 14:54 - 14:55 17:53 14:54
Maximum 39,1 C 84 % 1022,6 hPa 18,6 l/m 33,0 km/h
N-NO
- 23,3 C 39,1 C 18,4 km/h
N-NO
Durchschnitt 21,4 C 68 % 1015,1 hPa #61,6 l/m 1,5 km/h O-SO 14,6 C 21,3 C 0,8 km/h

Durchschnitt Minimum Temp.14,2 C
Durchschnitt Maximum Temp.31,1 C
www.sexauwetter.de